Eldorado, Iowa
Current Conditions -  °F | °C
As of 11:35 AM on Sunday 23 Nov 2014 (Local Time) from KDEH Reporting Station
Haze Haze  
Wind Chill: 44°   Ceiling: 400
Heat Index: 48°   Visibility: 2mi
Dew Point: 48°   Wind: 9mph
Humidity: 100%   Direction: 180°S
Pressure: 29.47"   Gusts: NA
Location:  43.0026°N, 91.7836°W
Report Text: KDEH 231735Z AUTO 18008KT 2SM BR OVC004 09/09 A2947 RMK AO2
Loading
Personal Weather Stations






























Interactive Weather Map New forecast layout! Learn more

10-Day Weather Forecast

Advertisements
Track Severe Weather on mobile